sensor_id;sensor_type;location;lat;lon;timestamp;P1;P2;P0
26185;PMS7003;20067;48.764;9.176;2023-06-24T00:01:29;9.25;8.25;4.50
26185;PMS7003;20067;48.764;9.176;2023-06-24T00:03:56;11.75;9.00;4.50
26185;PMS7003;20067;48.764;9.176;2023-06-24T00:06:23;12.75;11.50;6.00
26185;PMS7003;20067;48.764;9.176;2023-06-24T00:08:51;13.00;12.00;6.25
26185;PMS7003;20067;48.764;9.176;2023-06-24T00:11:25;37.75;28.25;15.75
26185;PMS7003;20067;48.764;9.176;2023-06-24T00:13:52;12.75;11.75;6.00
26185;PMS7003;20067;48.764;9.176;2023-06-24T00:16:18;12.00;11.75;6.00
26185;PMS7003;20067;48.764;9.176;2023-06-24T00:18:51;9.75;9.75;6.00
26185;PMS7003;20067;48.764;9.176;2023-06-24T00:21:18;11.25;11.25;5.25
26185;PMS7003;20067;48.764;9.176;2023-06-24T00:23:45;11.75;10.50;5.50
26185;PMS7003;20067;48.764;9.176;2023-06-24T00:26:14;13.25;11.25;6.25
26185;PMS7003;20067;48.764;9.176;2023-06-24T00:28:41;14.50;11.75;6.00
26185;PMS7003;20067;48.764;9.176;2023-06-24T00:31:08;9.75;9.75;6.00
26185;PMS7003;20067;48.764;9.176;2023-06-24T00:33:36;9.50;9.00;6.00
26185;PMS7003;20067;48.764;9.176;2023-06-24T00:36:02;10.25;10.25;4.00
26185;PMS7003;20067;48.764;9.176;2023-06-24T00:38:28;13.50;11.00;5.50
26185;PMS7003;20067;48.764;9.176;2023-06-24T00:40:57;12.25;10.00;6.00
26185;PMS7003;20067;48.764;9.176;2023-06-24T00:43:23;15.50;14.75;7.75
26185;PMS7003;20067;48.764;9.176;2023-06-24T00:45:50;11.00;10.00;6.00
26185;PMS7003;20067;48.764;9.176;2023-06-24T00:48:18;12.25;11.00;6.00
26185;PMS7003;20067;48.764;9.176;2023-06-24T00:50:45;9.25;9.25;6.00
26185;PMS7003;20067;48.764;9.176;2023-06-24T00:53:11;14.00;11.00;6.00
26185;PMS7003;20067;48.764;9.176;2023-06-24T00:55:37;13.75;12.00;6.25
26185;PMS7003;20067;48.764;9.176;2023-06-24T00:58:03;12.00;11.75;6.00
26185;PMS7003;20067;48.764;9.176;2023-06-24T01:00:29;12.50;11.00;4.25
26185;PMS7003;20067;48.764;9.176;2023-06-24T01:02:57;12.00;10.50;6.00
26185;PMS7003;20067;48.764;9.176;2023-06-24T01:05:24;12.00;11.00;6.00
26185;PMS7003;20067;48.764;9.176;2023-06-24T01:07:51;13.00;13.00;6.00
26185;PMS7003;20067;48.764;9.176;2023-06-24T01:10:20;13.00;12.00;6.00
26185;PMS7003;20067;48.764;9.176;2023-06-24T01:12:47;14.00;12.00;6.00
26185;PMS7003;20067;48.764;9.176;2023-06-24T01:15:13;12.75;11.50;6.00
26185;PMS7003;20067;48.764;9.176;2023-06-24T01:20:23;10.75;10.00;5.00
26185;PMS7003;20067;48.764;9.176;2023-06-24T01:34:14;13.50;12.75;6.50
26185;PMS7003;20067;48.764;9.176;2023-06-24T01:37:00;12.00;11.75;6.25
26185;PMS7003;20067;48.764;9.176;2023-06-24T01:39:31;12.00;12.00;7.00
26185;PMS7003;20067;48.764;9.176;2023-06-24T01:42:05;12.00;11.75;6.00
26185;PMS7003;20067;48.764;9.176;2023-06-24T01:44:34;15.25;12.75;6.75
26185;PMS7003;20067;48.764;9.176;2023-06-24T01:47:02;13.75;13.00;7.00
26185;PMS7003;20067;48.764;9.176;2023-06-24T01:49:31;15.25;11.25;7.00
26185;PMS7003;20067;48.764;9.176;2023-06-24T01:51:58;16.00;15.25;6.75
26185;PMS7003;20067;48.764;9.176;2023-06-24T01:54:26;11.75;11.00;6.00
26185;PMS7003;20067;48.764;9.176;2023-06-24T01:56:53;15.00;13.75;6.25
26185;PMS7003;20067;48.764;9.176;2023-06-24T01:59:21;11.25;9.75;5.00
26185;PMS7003;20067;48.764;9.176;2023-06-24T02:01:48;11.75;11.00;6.00
26185;PMS7003;20067;48.764;9.176;2023-06-24T02:04:16;13.25;12.25;6.00
26185;PMS7003;20067;48.764;9.176;2023-06-24T02:06:43;14.75;13.00;7.00
26185;PMS7003;20067;48.764;9.176;2023-06-24T02:09:11;11.50;11.00;6.50
26185;PMS7003;20067;48.764;9.176;2023-06-24T02:11:39;15.00;13.75;6.75
26185;PMS7003;20067;48.764;9.176;2023-06-24T02:14:06;12.75;12.00;7.00
26185;PMS7003;20067;48.764;9.176;2023-06-24T02:16:33;15.75;13.00;8.00
26185;PMS7003;20067;48.764;9.176;2023-06-24T02:19:01;11.25;11.00;6.00
26185;PMS7003;20067;48.764;9.176;2023-06-24T02:21:29;14.75;12.00;6.00
26185;PMS7003;20067;48.764;9.176;2023-06-24T02:23:56;16.25;15.00;7.00
26185;PMS7003;20067;48.764;9.176;2023-06-24T02:26:22;14.00;12.00;7.50
26185;PMS7003;20067;48.764;9.176;2023-06-24T02:28:50;18.25;15.75;9.50
26185;PMS7003;20067;48.764;9.176;2023-06-24T02:31:18;12.50;12.50;7.50
26185;PMS7003;20067;48.764;9.176;2023-06-24T02:33:44;16.75;14.75;9.25
26185;PMS7003;20067;48.764;9.176;2023-06-24T02:36:10;15.25;14.25;9.00
26185;PMS7003;20067;48.764;9.176;2023-06-24T02:38:36;12.75;12.00;7.00
26185;PMS7003;20067;48.764;9.176;2023-06-24T02:41:01;17.00;13.50;7.25
26185;PMS7003;20067;48.764;9.176;2023-06-24T02:43:29;15.00;13.50;6.50
26185;PMS7003;20067;48.764;9.176;2023-06-24T02:45:55;16.00;14.00;6.50
26185;PMS7003;20067;48.764;9.176;2023-06-24T02:48:23;16.50;13.75;7.00
26185;PMS7003;20067;48.764;9.176;2023-06-24T02:50:49;15.00;12.00;7.00
26185;PMS7003;20067;48.764;9.176;2023-06-24T02:53:16;15.00;14.25;9.00
26185;PMS7003;20067;48.764;9.176;2023-06-24T02:55:42;16.00;14.00;9.00
26185;PMS7003;20067;48.764;9.176;2023-06-24T02:58:09;15.00;14.75;7.00
26185;PMS7003;20067;48.764;9.176;2023-06-24T03:00:37;16.75;16.50;10.25
26185;PMS7003;20067;48.764;9.176;2023-06-24T03:03:04;17.75;15.00;9.75
26185;PMS7003;20067;48.764;9.176;2023-06-24T03:05:30;15.25;15.25;9.25
26185;PMS7003;20067;48.764;9.176;2023-06-24T03:07:58;14.50;13.75;6.75
26185;PMS7003;20067;48.764;9.176;2023-06-24T03:10:27;16.50;16.50;9.00
26185;PMS7003;20067;48.764;9.176;2023-06-24T03:12:52;19.00;17.25;9.25
26185;PMS7003;20067;48.764;9.176;2023-06-24T03:15:18;17.00;15.75;9.00
26185;PMS7003;20067;48.764;9.176;2023-06-24T03:17:44;14.50;13.75;7.50
26185;PMS7003;20067;48.764;9.176;2023-06-24T03:20:11;19.00;17.75;10.00
26185;PMS7003;20067;48.764;9.176;2023-06-24T03:22:36;17.25;14.50;7.00
26185;PMS7003;20067;48.764;9.176;2023-06-24T03:25:02;13.75;11.50;7.00
26185;PMS7003;20067;48.764;9.176;2023-06-24T03:27:29;14.25;13.50;7.25
26185;PMS7003;20067;48.764;9.176;2023-06-24T03:29:56;15.00;14.00;6.00
26185;PMS7003;20067;48.764;9.176;2023-06-24T03:32:22;18.00;15.00;9.75
26185;PMS7003;20067;48.764;9.176;2023-06-24T03:34:47;14.00;13.00;7.00
26185;PMS7003;20067;48.764;9.176;2023-06-24T03:37:13;14.00;13.50;8.00
26185;PMS7003;20067;48.764;9.176;2023-06-24T03:39:38;14.00;14.00;8.75
26185;PMS7003;20067;48.764;9.176;2023-06-24T03:42:04;18.75;18.25;10.00
26185;PMS7003;20067;48.764;9.176;2023-06-24T03:44:30;14.00;14.00;9.00
26185;PMS7003;20067;48.764;9.176;2023-06-24T03:46:55;15.75;14.75;7.00
26185;PMS7003;20067;48.764;9.176;2023-06-24T03:49:21;14.00;14.00;7.00
26185;PMS7003;20067;48.764;9.176;2023-06-24T03:51:47;14.00;11.00;7.00
26185;PMS7003;20067;48.764;9.176;2023-06-24T03:54:12;13.75;13.75;7.00
26185;PMS7003;20067;48.764;9.176;2023-06-24T03:56:38;14.00;13.00;6.75
26185;PMS7003;20067;48.764;9.176;2023-06-24T03:59:04;16.75;14.75;7.75
26185;PMS7003;20067;48.764;9.176;2023-06-24T04:01:29;13.50;11.25;6.50
26185;PMS7003;20067;48.764;9.176;2023-06-24T04:03:57;14.75;11.00;6.00
26185;PMS7003;20067;48.764;9.176;2023-06-24T04:06:23;14.00;14.00;7.00
26185;PMS7003;20067;48.764;9.176;2023-06-24T04:08:48;12.25;11.75;6.00
26185;PMS7003;20067;48.764;9.176;2023-06-24T04:11:17;12.25;12.00;6.00
26185;PMS7003;20067;48.764;9.176;2023-06-24T04:13:43;17.50;12.50;7.00
26185;PMS7003;20067;48.764;9.176;2023-06-24T04:16:09;15.25;15.25;9.25
26185;PMS7003;20067;48.764;9.176;2023-06-24T04:18:35;14.00;14.00;7.00
26185;PMS7003;20067;48.764;9.176;2023-06-24T04:21:04;14.50;11.75;7.00
26185;PMS7003;20067;48.764;9.176;2023-06-24T04:23:31;14.00;13.25;7.25
26185;PMS7003;20067;48.764;9.176;2023-06-24T04:25:57;12.00;12.00;7.00
26185;PMS7003;20067;48.764;9.176;2023-06-24T04:28:23;12.75;12.75;6.25
26185;PMS7003;20067;48.764;9.176;2023-06-24T04:30:48;13.75;11.75;6.75
26185;PMS7003;20067;48.764;9.176;2023-06-24T04:33:14;11.25;11.00;7.00
26185;PMS7003;20067;48.764;9.176;2023-06-24T04:35:39;14.50;13.50;7.00
26185;PMS7003;20067;48.764;9.176;2023-06-24T04:38:05;11.00;11.00;6.50
26185;PMS7003;20067;48.764;9.176;2023-06-24T04:40:30;14.50;13.50;7.00
26185;PMS7003;20067;48.764;9.176;2023-06-24T04:42:56;14.00;14.00;7.00
26185;PMS7003;20067;48.764;9.176;2023-06-24T04:45:22;13.75;11.50;6.00
26185;PMS7003;20067;48.764;9.176;2023-06-24T04:47:48;15.00;12.75;7.00
26185;PMS7003;20067;48.764;9.176;2023-06-24T04:50:13;16.00;12.00;6.50
26185;PMS7003;20067;48.764;9.176;2023-06-24T04:52:39;16.00;15.00;9.00
26185;PMS7003;20067;48.764;9.176;2023-06-24T04:55:05;13.00;13.00;6.75
26185;PMS7003;20067;48.764;9.176;2023-06-24T04:57:31;12.75;12.25;6.75
26185;PMS7003;20067;48.764;9.176;2023-06-24T04:59:59;18.25;14.50;7.00
26185;PMS7003;20067;48.764;9.176;2023-06-24T05:02:24;14.25;12.50;7.00
26185;PMS7003;20067;48.764;9.176;2023-06-24T05:04:51;12.25;12.00;7.00
26185;PMS7003;20067;48.764;9.176;2023-06-24T05:07:17;12.75;11.50;6.00
26185;PMS7003;20067;48.764;9.176;2023-06-24T05:09:42;14.75;12.00;7.25
26185;PMS7003;20067;48.764;9.176;2023-06-24T05:12:10;17.25;12.25;6.75
26185;PMS7003;20067;48.764;9.176;2023-06-24T05:14:36;15.50;13.00;8.00
26185;PMS7003;20067;48.764;9.176;2023-06-24T05:17:02;13.25;12.75;7.00
26185;PMS7003;20067;48.764;9.176;2023-06-24T05:19:28;18.75;16.00;7.75
26185;PMS7003;20067;48.764;9.176;2023-06-24T05:21:54;15.25;14.75;8.50
26185;PMS7003;20067;48.764;9.176;2023-06-24T05:24:20;12.00;11.00;7.00
26185;PMS7003;20067;48.764;9.176;2023-06-24T05:26:48;13.25;12.00;7.50
26185;PMS7003;20067;48.764;9.176;2023-06-24T05:29:15;14.75;12.50;8.00
26185;PMS7003;20067;48.764;9.176;2023-06-24T05:31:41;17.00;15.25;8.75
26185;PMS7003;20067;48.764;9.176;2023-06-24T05:34:07;17.25;13.75;7.25
26185;PMS7003;20067;48.764;9.176;2023-06-24T05:36:33;13.25;13.25;7.25
26185;PMS7003;20067;48.764;9.176;2023-06-24T05:38:59;14.75;13.25;8.00
26185;PMS7003;20067;48.764;9.176;2023-06-24T05:41:25;15.00;12.50;7.25
26185;PMS7003;20067;48.764;9.176;2023-06-24T05:44:00;15.00;14.75;9.25
26185;PMS7003;20067;48.764;9.176;2023-06-24T05:46:28;15.00;12.00;7.75
26185;PMS7003;20067;48.764;9.176;2023-06-24T05:48:53;15.25;12.75;7.25
26185;PMS7003;20067;48.764;9.176;2023-06-24T05:51:19;16.00;12.25;6.50
26185;PMS7003;20067;48.764;9.176;2023-06-24T05:53:45;17.00;13.00;7.50
26185;PMS7003;20067;48.764;9.176;2023-06-24T05:56:10;15.50;14.50;9.25
26185;PMS7003;20067;48.764;9.176;2023-06-24T05:58:36;13.00;12.50;6.75
26185;PMS7003;20067;48.764;9.176;2023-06-24T06:01:02;11.25;10.50;6.00
26185;PMS7003;20067;48.764;9.176;2023-06-24T06:03:28;12.25;12.00;7.00
26185;PMS7003;20067;48.764;9.176;2023-06-24T06:05:53;12.75;12.75;7.00
26185;PMS7003;20067;48.764;9.176;2023-06-24T06:08:19;12.50;12.00;6.25
26185;PMS7003;20067;48.764;9.176;2023-06-24T06:10:45;13.50;13.00;8.50
26185;PMS7003;20067;48.764;9.176;2023-06-24T06:13:10;16.25;11.00;5.50
26185;PMS7003;20067;48.764;9.176;2023-06-24T06:15:37;14.75;11.75;6.00
26185;PMS7003;20067;48.764;9.176;2023-06-24T06:18:02;15.00;13.00;7.00
26185;PMS7003;20067;48.764;9.176;2023-06-24T06:20:28;13.00;11.00;6.75
26185;PMS7003;20067;48.764;9.176;2023-06-24T06:22:54;12.75;11.75;6.00
26185;PMS7003;20067;48.764;9.176;2023-06-24T06:25:19;12.75;11.00;6.25
26185;PMS7003;20067;48.764;9.176;2023-06-24T06:27:45;12.75;12.00;7.00
26185;PMS7003;20067;48.764;9.176;2023-06-24T06:30:11;12.25;11.25;6.50
26185;PMS7003;20067;48.764;9.176;2023-06-24T06:32:37;11.75;11.25;6.25
26185;PMS7003;20067;48.764;9.176;2023-06-24T06:35:03;17.00;14.75;8.00
26185;PMS7003;20067;48.764;9.176;2023-06-24T06:37:29;12.00;12.00;7.00
26185;PMS7003;20067;48.764;9.176;2023-06-24T06:39:54;11.25;11.25;6.50
26185;PMS7003;20067;48.764;9.176;2023-06-24T06:42:20;13.75;12.50;6.00
26185;PMS7003;20067;48.764;9.176;2023-06-24T06:44:45;12.75;12.50;7.00
26185;PMS7003;20067;48.764;9.176;2023-06-24T06:47:11;10.00;10.00;7.00
26185;PMS7003;20067;48.764;9.176;2023-06-24T06:49:37;10.00;10.00;6.00
26185;PMS7003;20067;48.764;9.176;2023-06-24T06:52:03;12.00;11.75;6.00
26185;PMS7003;20067;48.764;9.176;2023-06-24T06:54:30;11.25;11.25;6.00
26185;PMS7003;20067;48.764;9.176;2023-06-24T06:56:59;9.50;8.25;4.00
26185;PMS7003;20067;48.764;9.176;2023-06-24T06:59:26;9.00;9.00;4.00
26185;PMS7003;20067;48.764;9.176;2023-06-24T07:01:52;12.50;11.50;6.00
26185;PMS7003;20067;48.764;9.176;2023-06-24T07:04:17;9.00;9.00;4.50
26185;PMS7003;20067;48.764;9.176;2023-06-24T07:06:43;10.50;10.00;7.00
26185;PMS7003;20067;48.764;9.176;2023-06-24T07:09:08;11.00;10.00;5.00
26185;PMS7003;20067;48.764;9.176;2023-06-24T07:11:34;8.75;8.75;4.00
26185;PMS7003;20067;48.764;9.176;2023-06-24T07:14:00;11.50;9.50;5.75
26185;PMS7003;20067;48.764;9.176;2023-06-24T07:16:25;13.75;10.75;5.75
26185;PMS7003;20067;48.764;9.176;2023-06-24T07:18:51;14.00;10.25;4.00
26185;PMS7003;20067;48.764;9.176;2023-06-24T07:21:16;10.25;10.25;4.00
26185;PMS7003;20067;48.764;9.176;2023-06-24T07:23:42;9.00;9.00;4.75
26185;PMS7003;20067;48.764;9.176;2023-06-24T07:26:08;11.00;10.00;5.00
26185;PMS7003;20067;48.764;9.176;2023-06-24T07:28:33;10.25;10.00;4.00
26185;PMS7003;20067;48.764;9.176;2023-06-24T07:30:59;10.00;9.25;5.00
26185;PMS7003;20067;48.764;9.176;2023-06-24T07:33:25;11.00;10.25;7.00
26185;PMS7003;20067;48.764;9.176;2023-06-24T07:35:50;12.25;11.00;5.25
26185;PMS7003;20067;48.764;9.176;2023-06-24T07:38:16;12.75;10.00;5.00
26185;PMS7003;20067;48.764;9.176;2023-06-24T07:40:42;11.00;10.50;7.00
26185;PMS7003;20067;48.764;9.176;2023-06-24T07:43:08;12.50;10.75;7.00
26185;PMS7003;20067;48.764;9.176;2023-06-24T07:45:34;10.00;9.25;4.00
26185;PMS7003;20067;48.764;9.176;2023-06-24T07:47:59;11.75;10.50;5.00
26185;PMS7003;20067;48.764;9.176;2023-06-24T07:50:25;9.75;9.75;4.00
26185;PMS7003;20067;48.764;9.176;2023-06-24T07:52:51;11.00;10.00;5.00
26185;PMS7003;20067;48.764;9.176;2023-06-24T07:55:16;15.25;12.50;6.25
26185;PMS7003;20067;48.764;9.176;2023-06-24T07:57:45;11.50;10.50;5.00
26185;PMS7003;20067;48.764;9.176;2023-06-24T08:00:11;10.00;9.25;5.00
26185;PMS7003;20067;48.764;9.176;2023-06-24T08:02:38;9.50;7.75;4.25
26185;PMS7003;20067;48.764;9.176;2023-06-24T08:05:03;12.75;12.75;7.00
26185;PMS7003;20067;48.764;9.176;2023-06-24T08:07:29;10.50;10.50;6.25
26185;PMS7003;20067;48.764;9.176;2023-06-24T08:09:55;11.00;10.25;5.00
26185;PMS7003;20067;48.764;9.176;2023-06-24T08:12:21;12.00;11.75;6.00
26185;PMS7003;20067;48.764;9.176;2023-06-24T08:14:46;11.00;11.00;5.50
26185;PMS7003;20067;48.764;9.176;2023-06-24T08:17:12;11.00;11.00;5.00
26185;PMS7003;20067;48.764;9.176;2023-06-24T08:19:37;14.25;12.75;6.75
26185;PMS7003;20067;48.764;9.176;2023-06-24T08:22:03;9.75;9.75;5.25
26185;PMS7003;20067;48.764;9.176;2023-06-24T08:24:29;11.25;11.25;5.50
26185;PMS7003;20067;48.764;9.176;2023-06-24T08:26:56;13.50;9.00;4.50
26185;PMS7003;20067;48.764;9.176;2023-06-24T08:29:21;9.25;9.00;5.25
26185;PMS7003;20067;48.764;9.176;2023-06-24T08:31:47;8.00;8.00;4.50
26185;PMS7003;20067;48.764;9.176;2023-06-24T08:34:13;12.00;11.00;6.00
26185;PMS7003;20067;48.764;9.176;2023-06-24T08:36:38;10.50;10.50;6.00
26185;PMS7003;20067;48.764;9.176;2023-06-24T08:39:04;12.75;10.50;6.75
26185;PMS7003;20067;48.764;9.176;2023-06-24T08:41:30;8.75;8.75;4.75
26185;PMS7003;20067;48.764;9.176;2023-06-24T08:43:55;10.00;10.00;5.75
26185;PMS7003;20067;48.764;9.176;2023-06-24T08:46:21;12.00;12.00;6.00
26185;PMS7003;20067;48.764;9.176;2023-06-24T08:48:49;13.75;10.25;6.25
26185;PMS7003;20067;48.764;9.176;2023-06-24T08:51:35;9.75;8.75;4.50
26185;PMS7003;20067;48.764;9.176;2023-06-24T08:54:07;8.25;8.00;4.25
26185;PMS7003;20067;48.764;9.176;2023-06-24T08:56:35;9.50;9.00;5.00
26185;PMS7003;20067;48.764;9.176;2023-06-24T08:59:08;12.25;10.00;6.00
26185;PMS7003;20067;48.764;9.176;2023-06-24T09:01:34;9.50;8.75;5.00
26185;PMS7003;20067;48.764;9.176;2023-06-24T09:04:00;10.00;9.25;5.00
26185;PMS7003;20067;48.764;9.176;2023-06-24T09:06:25;11.25;10.50;7.00
26185;PMS7003;20067;48.764;9.176;2023-06-24T09:08:52;10.75;9.00;5.50
26185;PMS7003;20067;48.764;9.176;2023-06-24T09:11:22;11.00;11.00;6.25
26185;PMS7003;20067;48.764;9.176;2023-06-24T09:13:54;12.25;11.75;7.00
26185;PMS7003;20067;48.764;9.176;2023-06-24T09:16:23;10.25;9.75;5.50
26185;PMS7003;20067;48.764;9.176;2023-06-24T09:18:50;9.00;8.75;6.00
26185;PMS7003;20067;48.764;9.176;2023-06-24T09:21:21;9.75;8.50;5.25
26185;PMS7003;20067;48.764;9.176;2023-06-24T09:23:53;11.00;10.00;6.00
26185;PMS7003;20067;48.764;9.176;2023-06-24T09:26:26;9.75;9.75;6.00
26185;PMS7003;20067;48.764;9.176;2023-06-24T09:28:52;10.50;8.00;5.00
26185;PMS7003;20067;48.764;9.176;2023-06-24T09:31:19;9.75;9.75;5.50
26185;PMS7003;20067;48.764;9.176;2023-06-24T09:33:45;10.25;10.00;5.50
26185;PMS7003;20067;48.764;9.176;2023-06-24T09:36:12;10.00;10.00;5.75
26185;PMS7003;20067;48.764;9.176;2023-06-24T09:38:44;9.75;9.75;5.00
26185;PMS7003;20067;48.764;9.176;2023-06-24T09:41:10;10.00;9.25;5.75
26185;PMS7003;20067;48.764;9.176;2023-06-24T09:43:37;9.50;8.75;5.00
26185;PMS7003;20067;48.764;9.176;2023-06-24T09:46:06;11.00;11.00;6.00
26185;PMS7003;20067;48.764;9.176;2023-06-24T09:48:32;13.50;11.00;6.00
26185;PMS7003;20067;48.764;9.176;2023-06-24T09:51:02;9.50;9.50;5.00
26185;PMS7003;20067;48.764;9.176;2023-06-24T09:53:30;10.75;10.00;6.00
26185;PMS7003;20067;48.764;9.176;2023-06-24T09:55:58;9.75;8.75;5.75
26185;PMS7003;20067;48.764;9.176;2023-06-24T09:58:26;10.00;10.00;6.00
26185;PMS7003;20067;48.764;9.176;2023-06-24T10:00:54;8.50;8.00;5.00
26185;PMS7003;20067;48.764;9.176;2023-06-24T10:03:20;8.00;8.00;4.00
26185;PMS7003;20067;48.764;9.176;2023-06-24T10:05:46;9.25;9.25;5.00
26185;PMS7003;20067;48.764;9.176;2023-06-24T10:08:13;8.75;8.00;5.00
26185;PMS7003;20067;48.764;9.176;2023-06-24T10:10:39;9.25;8.00;4.75
26185;PMS7003;20067;48.764;9.176;2023-06-24T10:13:05;7.75;7.50;4.00
26185;PMS7003;20067;48.764;9.176;2023-06-24T10:15:31;12.25;10.00;4.75
26185;PMS7003;20067;48.764;9.176;2023-06-24T10:18:01;9.00;9.00;5.75
26185;PMS7003;20067;48.764;9.176;2023-06-24T10:20:28;10.25;10.25;6.00
26185;PMS7003;20067;48.764;9.176;2023-06-24T10:22:53;12.25;11.50;7.25
26185;PMS7003;20067;48.764;9.176;2023-06-24T10:25:20;9.00;9.00;5.00
26185;PMS7003;20067;48.764;9.176;2023-06-24T10:27:47;9.25;8.50;4.50
26185;PMS7003;20067;48.764;9.176;2023-06-24T10:30:19;11.00;9.00;4.75
26185;PMS7003;20067;48.764;9.176;2023-06-24T10:32:51;9.00;9.00;6.00
26185;PMS7003;20067;48.764;9.176;2023-06-24T10:35:26;12.00;10.50;5.25
26185;PMS7003;20067;48.764;9.176;2023-06-24T10:38:01;8.25;7.25;4.00
26185;PMS7003;20067;48.764;9.176;2023-06-24T10:40:36;10.00;10.00;6.25
26185;PMS7003;20067;48.764;9.176;2023-06-24T10:43:22;10.50;8.75;4.75
26185;PMS7003;20067;48.764;9.176;2023-06-24T10:45:57;8.75;8.00;4.50
26185;PMS7003;20067;48.764;9.176;2023-06-24T10:48:24;10.00;9.00;5.50
26185;PMS7003;20067;48.764;9.176;2023-06-24T10:50:50;8.75;8.75;4.50
26185;PMS7003;20067;48.764;9.176;2023-06-24T10:53:16;9.75;9.00;5.00
26185;PMS7003;20067;48.764;9.176;2023-06-24T10:55:43;9.25;9.00;5.00
26185;PMS7003;20067;48.764;9.176;2023-06-24T10:58:11;8.00;8.00;4.00
26185;PMS7003;20067;48.764;9.176;2023-06-24T11:00:39;8.00;8.00;4.50
26185;PMS7003;20067;48.764;9.176;2023-06-24T11:03:11;7.50;7.50;4.00
26185;PMS7003;20067;48.764;9.176;2023-06-24T11:05:42;7.75;7.25;3.75
26185;PMS7003;20067;48.764;9.176;2023-06-24T11:08:09;11.00;8.00;5.00
26185;PMS7003;20067;48.764;9.176;2023-06-24T11:10:45;8.50;8.50;5.00
26185;PMS7003;20067;48.764;9.176;2023-06-24T11:13:12;7.75;7.25;4.00
26185;PMS7003;20067;48.764;9.176;2023-06-24T11:15:39;9.75;9.75;6.00
26185;PMS7003;20067;48.764;9.176;2023-06-24T11:18:11;9.25;9.00;4.00
26185;PMS7003;20067;48.764;9.176;2023-06-24T11:20:37;10.00;9.75;5.00
26185;PMS7003;20067;48.764;9.176;2023-06-24T11:23:07;7.25;7.25;4.00
26185;PMS7003;20067;48.764;9.176;2023-06-24T11:25:38;8.75;8.00;4.00
26185;PMS7003;20067;48.764;9.176;2023-06-24T11:28:17;11.50;9.00;5.00
26185;PMS7003;20067;48.764;9.176;2023-06-24T11:30:44;9.25;7.75;4.00
26185;PMS7003;20067;48.764;9.176;2023-06-24T11:33:09;8.00;7.00;3.75
26185;PMS7003;20067;48.764;9.176;2023-06-24T11:35:35;8.00;7.25;4.00
26185;PMS7003;20067;48.764;9.176;2023-06-24T11:38:02;9.00;8.00;4.00
26185;PMS7003;20067;48.764;9.176;2023-06-24T11:40:28;9.00;6.25;3.00
26185;PMS7003;20067;48.764;9.176;2023-06-24T11:42:56;8.50;7.75;4.00
26185;PMS7003;20067;48.764;9.176;2023-06-24T11:45:21;7.75;7.00;3.00
26185;PMS7003;20067;48.764;9.176;2023-06-24T11:47:47;6.25;6.25;3.25
26185;PMS7003;20067;48.764;9.176;2023-06-24T11:50:17;9.00;8.00;4.00
26185;PMS7003;20067;48.764;9.176;2023-06-24T11:52:49;10.00;7.25;5.00
26185;PMS7003;20067;48.764;9.176;2023-06-24T11:55:19;6.50;6.00;2.50
26185;PMS7003;20067;48.764;9.176;2023-06-24T12:00:22;8.25;7.75;4.25
26185;PMS7003;20067;48.764;9.176;2023-06-24T12:02:53;7.75;7.75;3.75
26185;PMS7003;20067;48.764;9.176;2023-06-24T12:05:21;9.50;9.50;5.50
26185;PMS7003;20067;48.764;9.176;2023-06-24T12:07:51;10.00;10.00;6.00
26185;PMS7003;20067;48.764;9.176;2023-06-24T12:10:19;9.00;9.00;5.00
26185;PMS7003;20067;48.764;9.176;2023-06-24T12:12:45;8.00;8.00;5.00
26185;PMS7003;20067;48.764;9.176;2023-06-24T12:15:12;8.25;8.00;4.00
26185;PMS7003;20067;48.764;9.176;2023-06-24T12:17:37;9.00;9.00;5.00
26185;PMS7003;20067;48.764;9.176;2023-06-24T12:20:03;9.25;9.25;5.00
26185;PMS7003;20067;48.764;9.176;2023-06-24T12:22:30;9.50;9.50;6.00
26185;PMS7003;20067;48.764;9.176;2023-06-24T12:24:55;9.50;9.50;5.00
26185;PMS7003;20067;48.764;9.176;2023-06-24T12:27:21;8.00;8.00;4.00
26185;PMS7003;20067;48.764;9.176;2023-06-24T12:29:47;9.25;7.75;4.00
26185;PMS7003;20067;48.764;9.176;2023-06-24T12:32:12;12.00;9.75;6.00
26185;PMS7003;20067;48.764;9.176;2023-06-24T12:34:38;9.50;9.00;4.75
26185;PMS7003;20067;48.764;9.176;2023-06-24T12:37:03;9.00;9.00;6.00
26185;PMS7003;20067;48.764;9.176;2023-06-24T12:39:29;10.50;9.75;6.00
26185;PMS7003;20067;48.764;9.176;2023-06-24T12:41:55;8.75;8.75;5.25
26185;PMS7003;20067;48.764;9.176;2023-06-24T12:44:20;9.25;9.25;5.75
26185;PMS7003;20067;48.764;9.176;2023-06-24T12:46:46;12.50;10.75;7.00
26185;PMS7003;20067;48.764;9.176;2023-06-24T12:49:11;11.75;11.00;6.00
26185;PMS7003;20067;48.764;9.176;2023-06-24T12:51:37;11.00;9.00;5.75
26185;PMS7003;20067;48.764;9.176;2023-06-24T12:54:03;10.00;9.75;6.00
26185;PMS7003;20067;48.764;9.176;2023-06-24T12:56:29;8.25;7.00;4.00
26185;PMS7003;20067;48.764;9.176;2023-06-24T12:58:54;9.75;9.75;6.25
26185;PMS7003;20067;48.764;9.176;2023-06-24T13:01:20;11.00;10.00;6.25
26185;PMS7003;20067;48.764;9.176;2023-06-24T13:03:45;7.75;7.25;5.00
26185;PMS7003;20067;48.764;9.176;2023-06-24T13:06:11;10.00;9.00;5.25
26185;PMS7003;20067;48.764;9.176;2023-06-24T13:08:36;10.00;9.25;6.00
26185;PMS7003;20067;48.764;9.176;2023-06-24T13:11:02;8.00;8.00;4.75
26185;PMS7003;20067;48.764;9.176;2023-06-24T13:13:28;12.50;11.75;6.25
26185;PMS7003;20067;48.764;9.176;2023-06-24T13:15:53;9.00;9.00;5.00
26185;PMS7003;20067;48.764;9.176;2023-06-24T13:18:19;9.50;9.00;5.00
26185;PMS7003;20067;48.764;9.176;2023-06-24T13:20:45;8.75;8.75;4.50
26185;PMS7003;20067;48.764;9.176;2023-06-24T13:23:10;11.75;11.50;6.50
26185;PMS7003;20067;48.764;9.176;2023-06-24T13:25:36;8.00;8.00;5.00
26185;PMS7003;20067;48.764;9.176;2023-06-24T13:28:02;8.00;8.00;4.25
26185;PMS7003;20067;48.764;9.176;2023-06-24T13:30:28;9.00;9.00;5.75
26185;PMS7003;20067;48.764;9.176;2023-06-24T13:32:54;8.00;7.50;4.00
26185;PMS7003;20067;48.764;9.176;2023-06-24T13:35:19;9.00;9.00;5.00
26185;PMS7003;20067;48.764;9.176;2023-06-24T13:37:45;10.25;8.75;5.00
26185;PMS7003;20067;48.764;9.176;2023-06-24T13:40:11;9.25;8.50;4.75
26185;PMS7003;20067;48.764;9.176;2023-06-24T13:42:37;10.00;10.00;6.00
26185;PMS7003;20067;48.764;9.176;2023-06-24T13:45:03;9.50;9.50;5.50
26185;PMS7003;20067;48.764;9.176;2023-06-24T13:47:29;12.75;10.00;6.00
26185;PMS7003;20067;48.764;9.176;2023-06-24T13:49:54;8.00;8.00;5.00
26185;PMS7003;20067;48.764;9.176;2023-06-24T13:52:20;9.25;9.25;4.50
26185;PMS7003;20067;48.764;9.176;2023-06-24T13:54:46;10.75;10.50;6.75
26185;PMS7003;20067;48.764;9.176;2023-06-24T13:57:13;9.50;9.50;5.00
26185;PMS7003;20067;48.764;9.176;2023-06-24T13:59:38;11.00;10.00;6.00
26185;PMS7003;20067;48.764;9.176;2023-06-24T14:02:04;9.00;9.00;5.50
26185;PMS7003;20067;48.764;9.176;2023-06-24T14:04:30;9.25;8.50;5.00
26185;PMS7003;20067;48.764;9.176;2023-06-24T14:06:56;7.75;7.25;5.00
26185;PMS7003;20067;48.764;9.176;2023-06-24T14:09:21;11.00;10.00;6.00
26185;PMS7003;20067;48.764;9.176;2023-06-24T14:11:47;8.00;7.75;5.00
26185;PMS7003;20067;48.764;9.176;2023-06-24T14:14:12;10.00;9.25;6.00
26185;PMS7003;20067;48.764;9.176;2023-06-24T14:16:38;9.75;9.75;5.75
26185;PMS7003;20067;48.764;9.176;2023-06-24T14:19:04;8.00;8.00;4.25
26185;PMS7003;20067;48.764;9.176;2023-06-24T14:21:29;9.50;9.50;5.50